Kildeer, Illinois
Current Conditions -  °F | °C
As of 4:52 PM on Saturday 25 Oct 2014 (Local Time) from KPWK Reporting Station
Clear Clear  
Wind Chill: 71°   Ceiling: Unl
Heat Index: 71°   Visibility: 10mi
Dew Point: 26°   Wind: 14mph
Humidity: 19%   Direction: 300°WNW
Pressure: 29.92"   Gusts: 22mph
Location:  42.201°N, 88.0504°W
Report Text: KPWK 252152Z 30012G19KT 10SM CLR 22/M03 A2992 RMK AO2 SLP128 T02171033
Loading
Personal Weather Stations






























Interactive Weather Map
Tropical Storm Tracking
New forecast layout! Learn more

10-Day Weather Forecast

Advertisements
Track Severe Weather on mobile